Time;durP1;ratioP1;P1;durP2;ratioP2;P2;SDS_P1;SDS_P2;PMS_P1;PMS_P2;Temp;Humidity;BMP_temperature;BMP_pressure;BME280_temperature;BME280_humidity;BME280_pressure;Samples;Min_cycle;Max_cycle;Signal;HPM_P1;HPM_P2
2021/06/14 00:00:35;;;;;;;4.63;2.45;;;21.70;76.40;;;;;;5118135;28;20061;-69
2021/06/14 00:03:01;;;;;;;3.17;2.55;;;21.80;75.50;;;;;;5118072;28;20106;-69
2021/06/14 00:05:35;;;;;;;4.38;2.90;;;21.80;75.20;;;;;;5118317;28;20102;-69
2021/06/14 00:08:10;;;;;;;5.63;2.40;;;21.80;75.20;;;;;;5118315;28;20111;-69
2021/06/14 00:10:36;;;;;;;5.18;2.90;;;21.70;74.40;;;;;;5118226;28;20352;-69
2021/06/14 00:13:05;;;;;;;6.38;2.83;;;21.80;74.30;;;;;;5117933;28;20166;-69
2021/06/14 00:15:31;;;;;;;4.20;2.60;;;21.80;73.10;;;;;;5117849;28;20027;-69
2021/06/14 00:17:57;;;;;;;2.90;2.60;;;21.80;73.00;;;;;;5118128;28;20023;-69
2021/06/14 00:20:24;;;;;;;2.60;2.40;;;21.90;70.30;;;;;;5118096;28;20102;-69
2021/06/14 00:22:50;;;;;;;2.80;2.60;;;22.00;70.10;;;;;;5118017;28;20073;-69
2021/06/14 00:25:23;;;;;;;2.72;2.33;;;22.10;71.10;;;;;;5117983;28;20366;-69
2021/06/14 00:27:49;;;;;;;7.68;2.90;;;22.20;71.90;;;;;;5118006;28;20030;-69
2021/06/14 00:30:28;;;;;;;3.05;2.75;;;22.20;71.70;;;;;;5117502;28;20127;-69
2021/06/14 00:32:54;;;;;;;4.07;2.60;;;22.10;72.50;;;;;;5117861;28;20024;-69
2021/06/14 00:35:20;;;;;;;2.83;2.45;;;22.10;73.40;;;;;;5117793;28;20020;-69
2021/06/14 00:37:45;;;;;;;3.10;2.60;;;22.10;73.60;;;;;;5117485;28;20024;-69
2021/06/14 00:40:12;;;;;;;3.50;2.75;;;22.00;74.60;;;;;;5117141;28;20027;-69
2021/06/14 00:42:37;;;;;;;3.33;3.00;;;22.00;72.80;;;;;;5117706;28;20023;-69
2021/06/14 00:45:07;;;;;;;4.85;3.30;;;22.00;72.10;;;;;;5117875;28;20118;-69
2021/06/14 00:47:33;;;;;;;3.05;2.55;;;21.90;72.50;;;;;;5117350;28;20027;-69
2021/06/14 00:49:58;;;;;;;2.60;2.40;;;21.90;71.30;;;;;;5117547;28;20032;-69
2021/06/14 00:52:24;;;;;;;4.57;2.55;;;22.00;71.90;;;;;;5117250;28;20020;-69
2021/06/14 00:54:50;;;;;;;2.95;2.25;;;22.00;71.30;;;;;;5117551;28;20020;-69
2021/06/14 00:57:16;;;;;;;4.85;2.53;;;22.00;72.80;;;;;;5117246;28;20130;-69
2021/06/14 00:59:41;;;;;;;2.92;2.50;;;22.00;74.10;;;;;;5117510;28;20031;-69
2021/06/14 01:02:07;;;;;;;4.20;2.63;;;21.90;75.30;;;;;;5117457;28;20023;-69
2021/06/14 01:04:33;;;;;;;3.08;2.60;;;21.90;73.10;;;;;;5117172;28;20024;-69
2021/06/14 01:06:59;;;;;;;4.53;2.60;;;21.90;72.70;;;;;;5117372;28;20027;-69
2021/06/14 01:09:24;;;;;;;5.57;3.25;;;21.90;72.70;;;;;;5117464;28;20367;-69
2021/06/14 01:11:57;;;;;;;4.18;3.20;;;21.90;73.60;;;;;;5117305;28;20315;-69
2021/06/14 01:14:32;;;;;;;6.90;3.78;;;21.90;74.00;;;;;;5117077;28;20040;-69
2021/06/14 01:17:18;;;;;;;4.18;3.42;;;21.90;75.00;;;;;;5117323;28;20099;-69
2021/06/14 01:20:04;;;;;;;4.93;3.58;;;21.90;74.80;;;;;;5117338;28;20024;-69
2021/06/14 01:22:48;;;;;;;4.15;3.67;;;21.90;76.00;;;;;;5116974;28;20103;-69
2021/06/14 01:25:25;;;;;;;9.40;3.38;;;21.90;77.00;;;;;;5117268;28;20051;-69
2021/06/14 01:27:56;;;;;;;4.80;3.03;;;21.60;77.60;;;;;;5116970;28;20103;-69
2021/06/14 01:30:25;;;;;;;4.78;3.08;;;21.40;78.30;;;;;;5116740;28;20065;-69
2021/06/14 01:32:51;;;;;;;5.00;4.03;;;21.10;79.10;;;;;;5116892;28;20023;-69
2021/06/14 01:35:27;;;;;;;7.82;4.20;;;20.90;79.60;;;;;;5117147;28;20030;-69
2021/06/14 01:37:56;;;;;;;4.65;4.22;;;20.80;80.20;;;;;;5116847;28;20019;-69
2021/06/14 01:40:23;;;;;;;4.72;4.22;;;20.90;79.40;;;;;;5117122;28;20032;-69
2021/06/14 01:42:52;;;;;;;5.80;4.28;;;20.90;77.40;;;;;;5117027;28;20305;-69
2021/06/14 01:45:20;;;;;;;5.82;3.70;;;20.90;77.20;;;;;;5117040;28;20020;-69
2021/06/14 01:47:48;;;;;;;6.38;4.75;;;21.10;77.50;;;;;;5117098;28;20020;-69
2021/06/14 01:50:14;;;;;;;6.25;5.05;;;21.10;76.90;;;;;;5117611;28;20061;-69
2021/06/14 01:52:40;;;;;;;6.38;5.78;;;21.00;77.40;;;;;;5120934;28;20024;-69
2021/06/14 01:55:09;;;;;;;6.20;5.40;;;20.90;78.70;;;;;;5120815;28;20054;-69
2021/06/14 01:57:37;;;;;;;8.35;6.38;;;20.70;79.50;;;;;;5120877;28;20053;-69
2021/06/14 02:00:05;;;;;;;8.35;7.43;;;20.60;80.50;;;;;;5120473;28;20020;-69
2021/06/14 02:02:31;;;;;;;7.78;6.95;;;20.50;81.20;;;;;;5120750;28;20019;-69
2021/06/14 02:04:58;;;;;;;9.82;7.50;;;20.50;81.60;;;;;;5120670;28;20311;-69
2021/06/14 02:07:24;;;;;;;7.85;5.97;;;20.50;81.50;;;;;;5120710;28;20024;-69
2021/06/14 02:09:51;;;;;;;6.70;5.10;;;20.50;81.80;;;;;;5120336;28;20064;-69
2021/06/14 02:12:17;;;;;;;7.00;5.20;;;20.50;82.10;;;;;;5120185;28;20038;-69
2021/06/14 02:14:43;;;;;;;7.80;7.00;;;20.60;82.50;;;;;;5120106;28;20028;-69
2021/06/14 02:17:12;;;;;;;10.05;8.30;;;20.60;82.40;;;;;;5120467;28;20055;-69
2021/06/14 02:19:40;;;;;;;10.18;8.02;;;20.60;81.70;;;;;;5120304;28;20311;-69
2021/06/14 02:22:06;;;;;;;9.90;8.30;;;20.60;81.60;;;;;;5120377;28;20023;-69
2021/06/14 02:24:33;;;;;;;12.43;10.40;;;20.70;82.00;;;;;;5120074;28;20415;-69
2021/06/14 02:26:59;;;;;;;10.40;8.98;;;20.70;81.90;;;;;;5120204;28;20080;-69
2021/06/14 02:29:24;;;;;;;8.23;7.50;;;20.80;82.20;;;;;;5119742;28;20138;-69
2021/06/14 02:31:51;;;;;;;8.30;7.50;;;20.80;80.90;;;;;;5120148;28;20102;-69
2021/06/14 02:34:17;;;;;;;8.00;7.13;;;20.90;80.20;;;;;;5120175;28;20318;-69
2021/06/14 02:36:45;;;;;;;8.48;7.60;;;20.80;81.10;;;;;;5120059;28;20323;-69
2021/06/14 02:39:24;;;;;;;8.93;7.82;;;20.70;80.40;;;;;;5120051;28;20065;-69
2021/06/14 02:41:52;;;;;;;9.30;7.28;;;20.70;80.70;;;;;;5120036;28;20088;-69
2021/06/14 02:44:18;;;;;;;9.32;6.93;;;20.70;80.90;;;;;;5120106;28;20028;-69
2021/06/14 02:46:45;;;;;;;7.43;6.57;;;20.70;79.90;;;;;;5119518;28;20066;-69
2021/06/14 02:49:12;;;;;;;8.35;6.28;;;20.60;80.50;;;;;;5119825;28;20019;-69
2021/06/14 02:51:39;;;;;;;8.20;5.53;;;20.50;78.40;;;;;;5119700;28;20020;-69
2021/06/14 02:54:12;;;;;;;7.20;5.82;;;20.60;78.90;;;;;;5119319;28;20047;-69
2021/06/14 02:56:40;;;;;;;7.65;5.03;;;20.70;80.20;;;;;;5119706;28;20039;-69
2021/06/14 02:59:11;;;;;;;5.50;4.97;;;20.70;80.20;;;;;;5119720;28;20309;-69
2021/06/14 03:01:38;;;;;;;9.88;6.22;;;20.60;81.10;;;;;;5119022;28;20036;-69
2021/06/14 03:04:05;;;;;;;9.00;6.57;;;20.50;80.30;;;;;;5119249;28;20034;-69
2021/06/14 03:06:32;;;;;;;8.32;6.57;;;20.60;79.40;;;;;;5119496;28;20046;-69
2021/06/14 03:08:59;;;;;;;5.72;4.65;;;20.70;79.00;;;;;;5119492;28;20027;-69
2021/06/14 03:11:28;;;;;;;9.38;5.40;;;20.50;77.60;;;;;;5119009;28;20404;-69
2021/06/14 03:13:54;;;;;;;6.72;5.28;;;20.50;77.60;;;;;;5119505;28;20031;-69
2021/06/14 03:16:23;;;;;;;7.15;5.13;;;20.40;78.10;;;;;;5119298;28;20102;-69
2021/06/14 03:18:50;;;;;;;6.10;4.28;;;20.40;78.20;;;;;;5118963;28;20026;-69
2021/06/14 03:21:16;;;;;;;5.05;4.47;;;20.50;77.10;;;;;;5118915;28;20369;-69
2021/06/14 03:23:42;;;;;;;4.32;3.92;;;20.40;76.70;;;;;;5119173;28;20051;-69
2021/06/14 03:26:13;;;;;;;5.82;4.03;;;20.40;77.70;;;;;;5118771;28;20059;-69
2021/06/14 03:28:42;;;;;;;6.40;5.78;;;20.30;77.90;;;;;;5118927;28;20080;-69
2021/06/14 03:31:08;;;;;;;7.10;5.90;;;20.20;78.90;;;;;;5118694;28;20051;-69
2021/06/14 03:33:34;;;;;;;6.65;5.95;;;20.00;80.70;;;;;;5119031;28;20095;-69
2021/06/14 03:36:00;;;;;;;7.88;6.20;;;19.90;81.60;;;;;;5118565;28;20031;-69
2021/06/14 03:38:26;;;;;;;10.10;6.43;;;19.80;82.30;;;;;;5118599;28;20019;-69
2021/06/14 03:40:52;;;;;;;7.55;6.57;;;19.70;82.90;;;;;;5118860;28;20099;-69
2021/06/14 03:43:18;;;;;;;10.82;6.78;;;19.60;83.20;;;;;;5118375;28;20423;-69
2021/06/14 03:45:44;;;;;;;7.55;6.25;;;19.60;83.30;;;;;;5118658;28;20040;-69
2021/06/14 03:48:10;;;;;;;7.93;5.80;;;19.50;83.30;;;;;;5118384;28;20030;-69
2021/06/14 03:50:35;;;;;;;7.03;6.40;;;19.60;83.20;;;;;;5118575;28;20024;-69
2021/06/14 03:53:02;;;;;;;7.85;6.75;;;19.60;83.30;;;;;;5118596;28;20047;-69
2021/06/14 03:55:28;;;;;;;6.72;6.05;;;19.60;82.90;;;;;;5118555;28;20316;-69
2021/06/14 03:57:54;;;;;;;7.97;7.05;;;19.60;82.60;;;;;;5118208;28;20019;-69
2021/06/14 04:00:21;;;;;;;7.13;6.38;;;19.60;82.50;;;;;;5118501;28;20042;-69
2021/06/14 04:02:47;;;;;;;7.13;6.43;;;19.60;82.10;;;;;;5118152;28;20431;-69
2021/06/14 04:05:13;;;;;;;6.88;6.18;;;19.70;82.60;;;;;;5118355;28;20041;-69
2021/06/14 04:07:38;;;;;;;7.68;6.80;;;19.70;82.40;;;;;;5118338;28;20027;-69
2021/06/14 04:10:06;;;;;;;6.72;6.13;;;19.70;82.70;;;;;;5117944;28;20115;-69
2021/06/14 04:12:32;;;;;;;7.75;6.95;;;19.60;82.70;;;;;;5118319;27;20028;-69
2021/06/14 04:14:58;;;;;;;10.38;7.10;;;19.60;83.10;;;;;;5117381;28;20141;-69
2021/06/14 04:17:24;;;;;;;7.20;6.50;;;19.60;83.40;;;;;;5117862;28;20027;-69
2021/06/14 04:19:50;;;;;;;9.18;6.97;;;19.60;83.10;;;;;;5118093;28;20064;-69
2021/06/14 04:22:16;;;;;;;42.63;37.45;;;19.50;83.10;;;;;;5118028;28;20312;-69
2021/06/14 04:24:42;;;;;;;29.20;23.58;;;19.50;83.00;;;;;;5117741;28;20058;-69
2021/06/14 04:27:08;;;;;;;15.55;8.98;;;19.40;83.30;;;;;;5117990;28;20032;-69
2021/06/14 04:29:33;;;;;;;6.82;6.07;;;19.40;81.70;;;;;;5117466;28;20331;-69
2021/06/14 04:31:59;;;;;;;10.43;6.97;;;19.40;81.30;;;;;;5117496;28;20028;-69
2021/06/14 04:34:27;;;;;;;8.77;6.13;;;19.40;81.90;;;;;;5117937;28;20027;-69
2021/06/14 04:36:53;;;;;;;7.72;6.53;;;19.30;81.90;;;;;;5117751;28;20101;-69
2021/06/14 04:39:19;;;;;;;9.93;6.65;;;19.40;82.40;;;;;;5117787;28;20400;-69
2021/06/14 04:41:45;;;;;;;7.95;6.00;;;19.50;81.60;;;;;;5117316;28;20323;-69
2021/06/14 04:44:11;;;;;;;8.45;6.32;;;19.50;81.90;;;;;;5117738;28;20040;-69
2021/06/14 04:46:37;;;;;;;7.38;5.90;;;19.70;80.90;;;;;;5117649;28;20038;-69
2021/06/14 04:49:04;;;;;;;8.23;6.18;;;19.70;80.40;;;;;;5117645;28;20031;-69
2021/06/14 04:51:30;;;;;;;7.00;5.88;;;19.80;82.00;;;;;;5117534;28;20059;-69
2021/06/14 04:53:55;;;;;;;7.28;5.50;;;19.90;79.70;;;;;;5117313;28;20375;-69
2021/06/14 04:56:21;;;;;;;7.47;5.38;;;20.00;78.40;;;;;;5117537;28;20034;-69
2021/06/14 04:58:47;;;;;;;6.65;4.53;;;20.00;78.40;;;;;;5117516;28;20048;-69
2021/06/14 05:01:12;;;;;;;6.95;5.45;;;20.10;78.40;;;;;;5117542;28;20118;-69
2021/06/14 05:03:38;;;;;;;5.68;4.32;;;20.30;78.70;;;;;;5117509;28;20023;-69
2021/06/14 05:06:04;;;;;;;8.00;4.38;;;20.40;75.50;;;;;;5117109;28;20051;-69
2021/06/14 05:08:29;;;;;;;4.93;4.43;;;20.40;76.00;;;;;;5117434;28;20030;-69
2021/06/14 05:10:55;;;;;;;5.95;4.28;;;20.50;77.70;;;;;;5117011;28;20032;-69
2021/06/14 05:13:21;;;;;;;6.03;4.45;;;20.60;76.00;;;;;;5117051;28;20042;-69
2021/06/14 05:15:46;;;;;;;5.45;4.28;;;20.60;75.20;;;;;;5117286;28;20031;-69
2021/06/14 05:18:12;;;;;;;8.32;4.90;;;20.70;76.30;;;;;;5117295;28;20042;-69
2021/06/14 05:20:38;;;;;;;5.20;4.05;;;20.80;76.00;;;;;;5117318;28;20035;-69
2021/06/14 05:23:04;;;;;;;6.30;4.35;;;20.80;75.90;;;;;;5117287;28;20103;-69
2021/06/14 05:25:32;;;;;;;4.95;4.25;;;20.80;76.10;;;;;;5118749;28;20476;-69
2021/06/14 05:27:57;;;;;;;5.05;4.47;;;20.80;76.00;;;;;;5121443;28;20024;-69
2021/06/14 05:30:24;;;;;;;7.18;5.25;;;20.90;76.10;;;;;;5120979;28;20047;-69
2021/06/14 05:32:50;;;;;;;6.82;5.18;;;20.90;76.30;;;;;;5121377;28;20020;-69
2021/06/14 05:35:16;;;;;;;7.10;6.03;;;21.00;78.80;;;;;;5121269;28;20372;-69
2021/06/14 05:37:42;;;;;;;11.30;7.07;;;21.10;79.00;;;;;;5120948;28;20372;-69
2021/06/14 05:40:09;;;;;;;7.85;6.18;;;21.10;79.20;;;;;;5121234;28;20024;-69
2021/06/14 05:42:35;;;;;;;8.18;6.97;;;21.10;80.70;;;;;;5121152;28;20041;-69
2021/06/14 05:45:04;;;;;;;11.57;7.20;;;21.10;80.60;;;;;;5121293;28;20043;-69
2021/06/14 05:47:29;;;;;;;7.78;6.82;;;21.00;81.90;;;;;;5120792;28;20423;-69
2021/06/14 05:49:55;;;;;;;8.27;7.47;;;21.00;80.00;;;;;;5121021;28;20020;-69
2021/06/14 05:52:21;;;;;;;7.95;7.15;;;21.00;79.40;;;;;;5120951;28;20187;-69
2021/06/14 05:54:46;;;;;;;10.02;6.78;;;21.00;79.50;;;;;;5120911;28;20319;-69
2021/06/14 05:57:12;;;;;;;10.27;7.28;;;21.10;80.20;;;;;;5120583;28;20024;-69
2021/06/14 05:59:38;;;;;;;9.75;7.15;;;21.20;79.60;;;;;;5120860;28;20028;-69
2021/06/14 06:02:05;;;;;;;9.73;6.72;;;21.40;78.60;;;;;;5120827;28;20529;-69
2021/06/14 06:04:31;;;;;;;7.15;6.47;;;21.60;79.50;;;;;;5121228;28;20027;-69
2021/06/14 06:06:56;;;;;;;8.02;7.00;;;21.90;78.50;;;;;;5120662;28;20023;-69
2021/06/14 06:09:26;;;;;;;6.68;6.03;;;22.20;76.40;;;;;;5120670;28;20467;-69
2021/06/14 06:11:52;;;;;;;7.82;7.00;;;22.30;75.30;;;;;;5120509;28;20027;-70
2021/06/14 06:14:19;;;;;;;7.55;6.72;;;22.30;75.40;;;;;;5120309;28;20084;-69
2021/06/14 06:16:45;;;;;;;6.85;6.15;;;22.40;75.00;;;;;;5120453;28;20088;-69
2021/06/14 06:19:11;;;;;;;7.70;6.00;;;22.70;74.50;;;;;;5120222;28;20403;-69
2021/06/14 06:21:37;;;;;;;8.55;6.10;;;23.10;73.40;;;;;;5120421;28;20103;-70
2021/06/14 06:24:04;;;;;;;8.15;6.13;;;23.70;71.80;;;;;;5120074;28;20400;-70
2021/06/14 06:26:29;;;;;;;7.90;5.75;;;24.10;70.90;;;;;;5119977;28;20107;-69
2021/06/14 06:28:55;;;;;;;7.03;5.18;;;24.50;69.50;;;;;;5120031;28;20066;-70
2021/06/14 06:31:21;;;;;;;6.60;5.88;;;24.90;68.50;;;;;;5120238;28;20112;-70
2021/06/14 06:33:46;;;;;;;6.47;5.82;;;25.20;67.70;;;;;;5120245;28;20034;-70
2021/06/14 06:36:12;;;;;;;10.20;5.20;;;25.10;67.00;;;;;;5119377;28;20024;-70
2021/06/14 06:38:38;;;;;;;5.75;5.15;;;25.40;66.80;;;;;;5119450;28;20083;-70
2021/06/14 06:41:05;;;;;;;7.95;5.50;;;25.70;66.20;;;;;;5120005;28;20076;-70
2021/06/14 06:43:34;;;;;;;7.72;5.43;;;26.00;65.60;;;;;;5120092;28;20108;-70
2021/06/14 06:46:00;;;;;;;9.02;5.18;;;26.40;64.60;;;;;;5119886;28;20036;-70
2021/06/14 06:48:27;;;;;;;7.68;5.07;;;26.80;63.70;;;;;;5119912;28;20119;-70
2021/06/14 06:50:53;;;;;;;8.13;5.50;;;27.00;62.50;;;;;;5119483;28;20027;-70
2021/06/14 06:53:18;;;;;;;5.57;4.60;;;27.00;63.20;;;;;;5119845;28;20047;-70
2021/06/14 06:55:44;;;;;;;12.15;5.72;;;27.20;63.20;;;;;;5119738;28;20099;-70
2021/06/14 06:58:10;;;;;;;5.53;5.00;;;27.40;61.60;;;;;;5119758;28;20358;-70
2021/06/14 07:00:36;;;;;;;5.57;4.97;;;27.70;60.90;;;;;;5119361;28;20108;-70
2021/06/14 07:03:02;;;;;;;7.70;5.40;;;27.70;61.30;;;;;;5119264;28;20036;-70
2021/06/14 07:05:28;;;;;;;5.68;5.10;;;27.70;61.40;;;;;;5119267;28;20081;-70
2021/06/14 07:07:53;;;;;;;6.30;5.30;;;27.90;61.50;;;;;;5119514;28;20028;-70
2021/06/14 07:10:19;;;;;;;6.57;5.70;;;27.90;60.60;;;;;;5119425;28;20031;-70
2021/06/14 07:12:45;;;;;;;7.93;5.75;;;27.80;60.90;;;;;;5119341;28;20107;-70
2021/06/14 07:15:12;;;;;;;5.75;5.15;;;27.90;61.50;;;;;;5119059;28;20016;-70
2021/06/14 07:17:44;;;;;;;6.63;5.10;;;28.00;60.20;;;;;;5119328;28;20022;-70
2021/06/14 07:20:12;;;;;;;6.22;5.30;;;28.20;60.20;;;;;;5119353;28;20069;-70
2021/06/14 07:22:39;;;;;;;9.27;4.68;;;28.30;59.90;;;;;;5118894;28;20076;-70
2021/06/14 07:25:07;;;;;;;7.93;4.40;;;28.30;59.90;;;;;;5118852;28;20434;-70
2021/06/14 07:27:33;;;;;;;9.07;4.85;;;28.10;59.70;;;;;;5118803;28;20446;-70
2021/06/14 07:30:00;;;;;;;8.63;4.80;;;28.20;59.40;;;;;;5118673;28;20036;-69
2021/06/14 07:32:26;;;;;;;5.55;5.03;;;28.10;59.30;;;;;;5118961;28;20024;-69
2021/06/14 07:34:52;;;;;;;5.55;4.70;;;28.00;59.00;;;;;;5118650;28;20020;-70
2021/06/14 07:37:20;;;;;;;7.53;3.58;;;28.30;58.60;;;;;;5117906;28;20114;-69
2021/06/14 07:39:46;;;;;;;8.32;4.35;;;28.40;59.70;;;;;;5118606;28;20107;-69
2021/06/14 07:42:12;;;;;;;8.32;4.25;;;28.60;59.40;;;;;;5118592;28;20068;-70
2021/06/14 07:44:38;;;;;;;5.35;4.15;;;28.60;58.10;;;;;;5118526;28;20050;-69
2021/06/14 07:47:04;;;;;;;7.63;4.68;;;28.50;58.80;;;;;;5118368;28;20415;-70
2021/06/14 07:49:30;;;;;;;6.40;4.05;;;28.60;58.30;;;;;;5118570;28;20023;-70
2021/06/14 07:51:56;;;;;;;5.43;3.67;;;28.70;58.10;;;;;;5118553;28;20027;-70
2021/06/14 07:54:22;;;;;;;5.32;3.83;;;29.00;57.90;;;;;;5118686;28;20023;-70
2021/06/14 07:56:49;;;;;;;6.22;4.15;;;29.10;58.70;;;;;;5118165;28;20428;-70
2021/06/14 07:59:15;;;;;;;5.30;4.18;;;29.20;56.20;;;;;;5118235;28;20028;-70
2021/06/14 08:01:41;;;;;;;7.97;4.45;;;29.20;55.60;;;;;;5118228;28;20031;-70
2021/06/14 08:04:08;;;;;;;6.72;4.50;;;28.90;55.60;;;;;;5118187;28;20022;-70
2021/06/14 08:06:34;;;;;;;8.43;4.60;;;29.00;55.70;;;;;;5118328;28;20038;-70
2021/06/14 08:09:02;;;;;;;4.55;4.10;;;29.10;54.10;;;;;;5118306;28;20383;-70
2021/06/14 08:11:28;;;;;;;4.30;3.58;;;29.30;54.70;;;;;;5117912;28;20039;-70
2021/06/14 08:13:54;;;;;;;6.32;3.75;;;29.10;55.10;;;;;;5118353;28;20031;-70
2021/06/14 08:16:22;;;;;;;5.35;4.10;;;29.30;54.80;;;;;;5117881;28;20331;-70
2021/06/14 08:19:12;;;;;;;6.47;4.65;;;29.30;58.30;;;;;;5117839;28;20023;-70
2021/06/14 08:26:43;;;;;;;6.13;3.78;;;29.60;54.50;;;;;;5117919;28;20446;-70
2021/06/14 08:29:09;;;;;;;4.07;3.63;;;29.70;54.20;;;;;;5117689;28;20040;-70
2021/06/14 08:31:36;;;;;;;6.00;3.60;;;29.70;55.00;;;;;;5117859;28;20039;-70
2021/06/14 08:34:02;;;;;;;6.68;3.78;;;29.60;55.50;;;;;;5117609;28;20076;-70
2021/06/14 08:36:30;;;;;;;5.68;3.40;;;29.30;54.30;;;;;;5117503;28;20033;-70
2021/06/14 08:38:58;;;;;;;6.57;3.47;;;29.70;54.40;;;;;;5117496;28;20020;-70
2021/06/14 08:41:24;;;;;;;4.43;3.45;;;29.70;52.70;;;;;;5117760;28;20031;-70
2021/06/14 08:43:52;;;;;;;7.07;3.70;;;29.80;56.10;;;;;;5117711;28;20031;-70
2021/06/14 08:46:18;;;;;;;4.68;3.20;;;29.80;52.80;;;;;;5117392;28;20032;-70
2021/06/14 08:48:44;;;;;;;8.52;4.07;;;30.10;53.20;;;;;;5117727;28;20028;-70
2021/06/14 08:51:12;;;;;;;5.00;3.30;;;30.10;50.80;;;;;;5117610;28;20031;-70
2021/06/14 08:53:38;;;;;;;6.22;3.47;;;29.80;53.40;;;;;;5117664;28;20366;-70
2021/06/14 08:56:05;;;;;;;4.00;2.90;;;29.60;54.00;;;;;;5117532;28;20028;-70
2021/06/14 08:58:32;;;;;;;5.07;3.60;;;29.80;57.40;;;;;;5117581;28;20027;-70
2021/06/14 09:00:58;;;;;;;5.85;3.58;;;29.90;53.30;;;;;;5116927;28;20095;-70
2021/06/14 09:03:25;;;;;;;3.90;3.58;;;30.40;52.40;;;;;;5117212;28;20480;-70
2021/06/14 09:05:51;;;;;;;8.82;3.58;;;30.70;50.20;;;;;;5117387;28;20028;-69
2021/06/14 09:08:21;;;;;;;4.53;3.42;;;30.70;50.70;;;;;;5117449;28;20318;-70
2021/06/14 09:10:47;;;;;;;4.35;3.35;;;30.70;51.90;;;;;;5117385;28;20040;-70
2021/06/14 09:13:24;;;;;;;40.40;5.78;;;30.70;55.30;;;;;;5116990;28;20028;-70
2021/06/14 09:15:53;;;;;;;16.25;4.15;;;29.80;53.10;;;;;;5117347;28;20027;-69
2021/06/14 09:18:20;;;;;;;10.93;3.67;;;29.10;55.70;;;;;;5117379;28;20019;-70
2021/06/14 09:21:09;;;;;;;22.27;5.35;;;28.80;57.70;;;;;;5117311;28;20028;-70
2021/06/14 09:24:09;;;;;;;5.47;3.58;;;28.40;57.70;;;;;;5117345;28;20297;-70
2021/06/14 09:26:39;;;;;;;4.72;3.83;;;27.70;57.90;;;;;;5103641;28;20039;-70
2021/06/14 09:29:11;;;;;;;8.23;4.85;;;27.90;57.50;;;;;;5116761;28;20051;-70
2021/06/14 09:31:53;;;;;;;6.15;4.32;;;28.50;56.60;;;;;;5117262;28;20036;-70
2021/06/14 09:34:30;;;;;;;8.05;5.18;;;29.10;56.20;;;;;;5116983;28;20024;-70
2021/06/14 09:36:58;;;;;;;7.55;4.75;;;29.50;53.80;;;;;;5117190;28;20028;-70
2021/06/14 09:39:24;;;;;;;4.47;3.72;;;29.60;55.50;;;;;;5117145;28;20016;-70
2021/06/14 09:41:52;;;;;;;7.75;4.63;;;29.70;57.90;;;;;;5116866;28;20461;-70
2021/06/14 09:44:32;;;;;;;7.45;4.40;;;29.90;53.30;;;;;;5117195;28;20042;-70
2021/06/14 09:47:04;;;;;;;6.85;4.20;;;30.10;53.00;;;;;;5117069;28;20323;-70
2021/06/14 09:49:31;;;;;;;7.43;3.85;;;30.30;52.50;;;;;;5116610;28;20114;-70
2021/06/14 09:51:57;;;;;;;8.15;3.78;;;30.50;52.40;;;;;;5116938;28;20076;-70
2021/06/14 09:54:35;;;;;;;5.50;3.95;;;30.70;53.30;;;;;;5117083;28;20027;-70
2021/06/14 09:57:04;;;;;;;6.70;4.40;;;30.80;52.90;;;;;;5116950;28;20038;-70
2021/06/14 09:59:34;;;;;;;5.90;3.63;;;30.90;52.90;;;;;;5116990;28;20020;-69
2021/06/14 10:02:21;;;;;;;7.45;3.92;;;31.00;52.90;;;;;;5116632;28;20035;-69
2021/06/14 10:04:51;;;;;;;8.48;4.50;;;31.00;53.40;;;;;;5116935;28;20031;-70
2021/06/14 10:07:18;;;;;;;6.35;4.10;;;30.90;52.10;;;;;;5116953;28;20038;-69
2021/06/14 10:09:54;;;;;;;5.30;4.40;;;30.80;51.00;;;;;;5116886;28;20028;-69
2021/06/14 10:12:28;;;;;;;5.88;3.75;;;30.60;53.00;;;;;;5119405;28;20032;-70
2021/06/14 10:14:57;;;;;;;8.90;4.87;;;30.40;52.30;;;;;;5120745;28;20319;-70
2021/06/14 10:17:40;;;;;;;10.93;4.50;;;30.10;55.00;;;;;;5114545;27;20280;-70
2021/06/14 10:20:18;;;;;;;5.20;4.20;;;30.10;54.20;;;;;;5108975;28;20111;-70
2021/06/14 10:22:45;;;;;;;5.70;3.80;;;30.20;56.60;;;;;;5099715;28;20051;-70
2021/06/14 10:25:13;;;;;;;6.63;3.88;;;30.00;58.70;;;;;;5099941;28;20081;-70
2021/06/14 10:27:39;;;;;;;10.77;3.58;;;30.10;53.70;;;;;;5099647;28;20031;-70
2021/06/14 10:30:07;;;;;;;4.57;3.38;;;30.20;57.00;;;;;;5099503;28;20051;-70
2021/06/14 10:32:36;;;;;;;5.68;3.40;;;30.40;56.80;;;;;;5099706;28;20103;-70
2021/06/14 10:35:03;;;;;;;6.82;3.78;;;30.70;56.30;;;;;;5099452;28;20036;-70
2021/06/14 10:37:30;;;;;;;6.05;4.07;;;30.90;51.10;;;;;;5099756;28;20031;-70
2021/06/14 10:39:57;;;;;;;5.50;3.70;;;30.10;52.40;;;;;;5099713;28;20407;-70
2021/06/14 10:42:23;;;;;;;5.65;2.60;;;29.90;53.50;;;;;;5099589;28;20316;-69
2021/06/14 10:44:49;;;;;;;4.47;2.97;;;30.30;57.50;;;;;;5099772;28;20028;-70
2021/06/14 10:47:15;;;;;;;7.40;3.38;;;30.40;55.80;;;;;;5099585;28;20097;-70
2021/06/14 10:49:43;;;;;;;5.38;2.75;;;30.60;54.60;;;;;;5099510;28;20039;-70
2021/06/14 10:52:09;;;;;;;5.18;3.97;;;30.50;57.60;;;;;;5099038;28;20055;-70
2021/06/14 10:54:40;;;;;;;5.70;3.92;;;30.10;54.40;;;;;;5099460;28;20052;-70
2021/06/14 10:57:09;;;;;;;8.40;4.43;;;30.00;56.90;;;;;;5099320;28;20364;-70
2021/06/14 10:59:43;;;;;;;4.45;3.58;;;29.90;53.70;;;;;;5099291;28;20085;-69
2021/06/14 11:02:10;;;;;;;7.18;4.35;;;30.10;54.90;;;;;;5099290;28;20031;-70
2021/06/14 11:04:36;;;;;;;5.38;4.00;;;29.80;55.00;;;;;;5099794;28;20312;-70
2021/06/14 11:07:03;;;;;;;8.25;4.00;;;29.90;55.00;;;;;;5098774;28;20031;-70
2021/06/14 11:09:40;;;;;;;4.38;3.17;;;30.10;54.80;;;;;;5099156;28;20111;-69
2021/06/14 11:12:07;;;;;;;7.75;3.97;;;30.10;58.00;;;;;;5098976;28;20032;-70
2021/06/14 11:14:41;;;;;;;7.13;3.95;;;30.20;52.90;;;;;;5098665;28;20028;-70
2021/06/14 11:17:20;;;;;;;4.90;3.28;;;30.20;55.10;;;;;;5098593;28;20028;-70
2021/06/14 11:19:50;;;;;;;8.82;3.90;;;29.80;55.90;;;;;;5098754;28;20027;-70
2021/06/14 11:22:18;;;;;;;6.57;4.80;;;29.60;58.10;;;;;;5098803;28;20028;-70
2021/06/14 11:24:44;;;;;;;5.65;3.63;;;28.90;55.50;;;;;;5098338;28;20028;-70
2021/06/14 11:27:11;;;;;;;4.55;3.15;;;28.90;58.50;;;;;;5098814;28;20028;-70
2021/06/14 11:29:56;;;;;;;4.05;3.00;;;29.20;60.40;;;;;;5098262;28;20439;-70
2021/06/14 11:32:22;;;;;;;4.93;2.90;;;29.30;60.00;;;;;;5098314;28;20077;-70
2021/06/14 11:34:59;;;;;;;3.78;3.20;;;29.40;60.30;;;;;;5098653;28;20028;-70
2021/06/14 11:37:45;;;;;;;4.35;3.60;;;29.20;59.60;;;;;;5098315;28;20027;-70
2021/06/14 11:40:14;;;;;;;5.95;3.65;;;29.10;58.90;;;;;;5098573;28;20111;-70
2021/06/14 11:42:42;;;;;;;7.63;3.80;;;29.30;59.80;;;;;;5098454;28;20024;-69
2021/06/14 11:45:19;;;;;;;10.13;3.67;;;29.50;59.30;;;;;;5098109;28;20040;-69
2021/06/14 11:47:45;;;;;;;4.70;2.97;;;29.60;57.40;;;;;;5098404;28;20020;-69
2021/06/14 11:50:11;;;;;;;5.32;3.50;;;29.40;60.90;;;;;;5098373;28;20327;-70
2021/06/14 11:52:38;;;;;;;8.32;4.13;;;29.40;58.50;;;;;;5098210;28;20024;-70
2021/06/14 11:55:10;;;;;;;6.88;4.13;;;29.10;59.40;;;;;;5098256;28;20028;-70
2021/06/14 11:57:38;;;;;;;7.72;3.85;;;28.60;57.60;;;;;;5098230;28;20031;-70
2021/06/14 12:00:07;;;;;;;7.80;3.30;;;28.50;63.90;;;;;;5098142;28;20035;-70
2021/06/14 12:02:33;;;;;;;4.95;3.33;;;28.50;63.80;;;;;;5098031;28;20024;-70
2021/06/14 12:05:02;;;;;;;9.38;4.82;;;28.60;64.60;;;;;;5098049;28;20316;-70
2021/06/14 12:07:38;;;;;;;6.45;4.15;;;28.40;61.90;;;;;;5097712;28;20103;-70
2021/06/14 12:10:13;;;;;;;9.23;4.15;;;28.20;58.70;;;;;;5098783;28;20413;-70
2021/06/14 12:12:40;;;;;;;7.53;4.80;;;27.90;63.70;;;;;;5097556;28;20059;-70
2021/06/14 12:15:08;;;;;;;10.07;5.05;;;28.20;58.80;;;;;;5097862;28;20354;-70
2021/06/14 12:17:37;;;;;;;5.38;3.67;;;27.80;59.00;;;;;;5097527;28;20031;-70
2021/06/14 12:20:06;;;;;;;7.70;4.68;;;27.60;63.80;;;;;;5097764;28;20146;-70
2021/06/14 12:22:32;;;;;;;6.78;4.10;;;27.70;60.90;;;;;;5097731;28;20074;-70
2021/06/14 12:25:09;;;;;;;5.85;4.20;;;27.40;62.50;;;;;;5097657;28;20028;-70
2021/06/14 12:27:35;;;;;;;8.00;4.75;;;27.30;61.90;;;;;;5097581;28;20076;-69
2021/06/14 12:30:05;;;;;;;6.03;4.15;;;27.30;64.20;;;;;;5097257;28;20476;-69
2021/06/14 12:32:34;;;;;;;5.35;3.72;;;27.20;66.60;;;;;;5097535;28;20024;-69
2021/06/14 12:35:03;;;;;;;8.82;3.67;;;27.10;67.30;;;;;;5096703;28;20039;-69
2021/06/14 12:37:29;;;;;;;7.43;4.65;;;27.20;64.70;;;;;;5097525;28;20024;-69
2021/06/14 12:40:03;;;;;;;7.55;3.95;;;27.20;64.80;;;;;;5097468;28;20427;-69
2021/06/14 12:42:30;;;;;;;5.95;5.10;;;27.20;65.30;;;;;;5097414;28;20024;-69
2021/06/14 12:45:07;;;;;;;9.90;4.35;;;27.00;63.20;;;;;;5096958;28;20039;-70
2021/06/14 12:47:34;;;;;;;7.45;4.75;;;27.00;63.80;;;;;;5097370;28;20065;-70
2021/06/14 12:50:01;;;;;;;5.53;3.80;;;27.10;63.80;;;;;;5097331;28;20032;-70
2021/06/14 12:52:30;;;;;;;6.95;3.90;;;27.30;65.10;;;;;;5097209;28;20103;-70
2021/06/14 12:54:56;;;;;;;7.97;5.25;;;27.40;66.00;;;;;;5096901;28;20043;-70